Time;durP1;ratioP1;P1;durP2;ratioP2;P2;SDS_P1;SDS_P2;PMS_P1;PMS_P2;Temp;Humidity;BMP_temperature;BMP_pressure;BME280_temperature;BME280_humidity;BME280_pressure;Samples;Min_cycle;Max_cycle;Signal;HPM_P1;HPM_P2
2023/07/10 00:02:54;;;;;;;7.57;4.28;;;;;;;;;;8431643;28;20101;-86
2023/07/10 00:06:57;;;;;;;5.55;4.10;;;;;;;;;;8425911;28;20099;-89
2023/07/10 00:11:00;;;;;;;6.82;4.65;;;;;;;;;;8431356;28;20044;-84
2023/07/10 00:15:13;;;;;;;5.93;4.13;;;;;;;;;;8434974;28;20402;-88
2023/07/10 00:19:17;;;;;;;7.43;3.85;;;;;;;;;;8434902;28;20047;-88
2023/07/10 00:23:19;;;;;;;6.20;4.07;;;;;;;;;;8434585;28;20067;-82
2023/07/10 00:27:22;;;;;;;7.50;3.97;;;;;;;;;;8434649;28;20070;-88
2023/07/10 00:31:26;;;;;;;8.95;4.25;;;;;;;;;;8433502;28;20051;-89
2023/07/10 00:35:29;;;;;;;7.43;4.15;;;;;;;;;;8430340;28;20468;-83
2023/07/10 00:39:36;;;;;;;7.50;4.32;;;;;;;;;;8422932;28;20401;-90
2023/07/10 00:43:43;;;;;;;7.43;4.20;;;;;;;;;;8428453;28;20098;-83
2023/07/10 00:47:56;;;;;;;7.63;4.40;;;;;;;;;;8425558;28;20068;-87
2023/07/10 00:52:06;;;;;;;8.18;4.35;;;;;;;;;;8421031;28;20531;-90
2023/07/10 00:56:14;;;;;;;6.78;3.70;;;;;;;;;;8420129;28;20147;-86
2023/07/10 01:00:20;;;;;;;9.00;4.25;;;;;;;;;;8434288;28;20543;-87
2023/07/10 01:04:24;;;;;;;7.10;4.05;;;;;;;;;;8433140;28;20140;-88
2023/07/10 01:08:28;;;;;;;7.15;4.03;;;;;;;;;;8433549;28;20119;-82
2023/07/10 01:12:32;;;;;;;8.52;4.53;;;;;;;;;;8433271;28;20062;-83
2023/07/10 01:16:35;;;;;;;6.45;4.18;;;;;;;;;;8433354;28;20114;-91
2023/07/10 01:20:46;;;;;;;5.53;4.10;;;;;;;;;;8432700;28;20456;-88
2023/07/10 01:24:52;;;;;;;6.28;4.30;;;;;;;;;;8433383;28;20052;-90
2023/07/10 01:28:57;;;;;;;8.82;4.80;;;;;;;;;;8419698;28;20040;-84
2023/07/10 01:33:02;;;;;;;7.68;4.20;;;;;;;;;;8433699;28;20574;-90
2023/07/10 01:37:07;;;;;;;8.63;4.72;;;;;;;;;;8419063;28;20698;-84
2023/07/10 01:41:25;;;;;;;6.38;4.57;;;;;;;;;;8432336;28;20048;-84
2023/07/10 01:45:29;;;;;;;7.50;4.55;;;;;;;;;;8431575;28;20047;-81
2023/07/10 01:49:35;;;;;;;7.63;4.88;;;;;;;;;;8430498;28;20044;-85
2023/07/10 01:53:38;;;;;;;9.00;4.57;;;;;;;;;;8425344;28;20058;-87
2023/07/10 01:57:42;;;;;;;6.70;4.28;;;;;;;;;;8424842;28;20532;-89
2023/07/10 02:01:45;;;;;;;7.03;4.72;;;;;;;;;;8431474;28;20048;-81
2023/07/10 02:05:48;;;;;;;8.27;4.68;;;;;;;;;;8431996;28;20554;-82
2023/07/10 02:09:50;;;;;;;6.28;4.28;;;;;;;;;;8425487;28;20115;-89
2023/07/10 02:13:55;;;;;;;8.57;4.35;;;;;;;;;;8423732;28;20056;-89
2023/07/10 02:17:58;;;;;;;7.18;3.83;;;;;;;;;;8431808;28;20067;-89
2023/07/10 02:22:01;;;;;;;7.43;4.35;;;;;;;;;;8417800;28;20130;-92
2023/07/10 02:26:04;;;;;;;16.02;4.75;;;;;;;;;;8430959;28;20543;-83
2023/07/10 02:30:09;;;;;;;8.40;4.93;;;;;;;;;;8431136;28;20047;-84
2023/07/10 02:34:13;;;;;;;6.75;4.38;;;;;;;;;;8423924;28;20041;-88
2023/07/10 02:38:15;;;;;;;6.70;4.35;;;;;;;;;;8423035;28;20143;-92
2023/07/10 02:42:18;;;;;;;6.32;4.07;;;;;;;;;;8430891;28;20076;-83
2023/07/10 02:46:22;;;;;;;7.63;4.40;;;;;;;;;;8430116;28;20048;-88
2023/07/10 02:50:25;;;;;;;5.90;4.20;;;;;;;;;;8429937;28;20036;-88
2023/07/10 02:54:28;;;;;;;8.00;4.15;;;;;;;;;;8430287;28;20040;-89
2023/07/10 02:58:31;;;;;;;8.60;4.43;;;;;;;;;;8430098;28;20044;-90
2023/07/10 03:02:35;;;;;;;6.88;4.40;;;;;;;;;;8420325;28;20054;-90
2023/07/10 03:06:38;;;;;;;9.07;4.10;;;;;;;;;;8417177;28;20072;-87
2023/07/10 03:10:41;;;;;;;8.77;4.20;;;;;;;;;;8429085;28;20118;-89
2023/07/10 03:14:44;;;;;;;7.03;4.32;;;;;;;;;;8429365;28;20495;-90
2023/07/10 03:18:48;;;;;;;6.35;4.25;;;;;;;;;;8415776;28;20120;-88
2023/07/10 03:22:51;;;;;;;7.20;4.00;;;;;;;;;;8429288;28;20119;-89
2023/07/10 03:26:54;;;;;;;6.90;4.00;;;;;;;;;;8429896;28;20479;-87
2023/07/10 03:30:59;;;;;;;7.22;4.18;;;;;;;;;;8429676;28;20143;-92
2023/07/10 03:35:04;;;;;;;6.88;3.92;;;;;;;;;;8429121;28;20139;-92
2023/07/10 03:39:07;;;;;;;5.88;3.70;;;;;;;;;;8428480;28;20044;-88
2023/07/10 03:43:10;;;;;;;9.10;4.72;;;;;;;;;;8429110;28;20050;-85
2023/07/10 03:47:13;;;;;;;6.78;4.13;;;;;;;;;;8403219;28;20051;-89
2023/07/10 03:51:18;;;;;;;6.30;3.90;;;;;;;;;;8429609;28;20166;-84
2023/07/10 03:55:21;;;;;;;7.25;3.75;;;;;;;;;;8416551;28;20123;-83
2023/07/10 03:59:24;;;;;;;6.05;3.63;;;;;;;;;;8429549;28;20395;-87
2023/07/10 04:03:28;;;;;;;5.13;3.65;;;;;;;;;;8428930;28;20115;-92
2023/07/10 04:07:33;;;;;;;12.73;4.15;;;;;;;;;;8429090;28;20178;-90
2023/07/10 04:11:35;;;;;;;5.25;3.58;;;;;;;;;;8403444;28;20475;-93
2023/07/10 04:15:38;;;;;;;5.22;3.45;;;;;;;;;;8417223;28;20052;-92
2023/07/10 04:19:41;;;;;;;6.63;4.38;;;;;;;;;;8430167;28;20055;-92
2023/07/10 04:23:46;;;;;;;20.02;18.00;;;;;;;;;;8435335;28;20093;-92
2023/07/10 04:27:49;;;;;;;6.60;4.90;;;;;;;;;;8422033;28;20146;-85
2023/07/10 04:31:51;;;;;;;6.22;3.75;;;;;;;;;;8434827;28;20397;-87
2023/07/10 04:35:55;;;;;;;6.68;3.80;;;;;;;;;;8432421;28;20119;-90
2023/07/10 04:40:00;;;;;;;6.10;4.00;;;;;;;;;;8431460;28;20059;-83
2023/07/10 04:44:03;;;;;;;6.95;3.63;;;;;;;;;;8432920;28;20575;-87
2023/07/10 04:48:06;;;;;;;6.97;3.50;;;;;;;;;;8426368;28;20097;-90
2023/07/10 04:52:09;;;;;;;5.78;3.60;;;;;;;;;;8430899;28;20074;-83
2023/07/10 04:56:15;;;;;;;6.93;3.80;;;;;;;;;;8436472;28;20063;-85
2023/07/10 05:00:19;;;;;;;7.93;3.40;;;;;;;;;;8434420;28;20044;-84
2023/07/10 05:04:22;;;;;;;5.57;3.92;;;;;;;;;;8431991;28;20070;-84
2023/07/10 05:08:26;;;;;;;5.18;3.10;;;;;;;;;;8430657;28;20088;-89
2023/07/10 05:12:30;;;;;;;5.40;3.15;;;;;;;;;;8432040;28;20067;-83
2023/07/10 05:16:33;;;;;;;6.63;2.90;;;;;;;;;;8423603;28;20489;-91
2023/07/10 05:20:36;;;;;;;10.05;8.93;;;;;;;;;;8422511;28;20079;-88
2023/07/10 05:24:39;;;;;;;5.45;4.30;;;;;;;;;;8422846;28;20135;-85
2023/07/10 05:28:43;;;;;;;5.45;4.18;;;;;;;;;;8431568;28;20048;-83
2023/07/10 05:32:46;;;;;;;5.18;3.60;;;;;;;;;;8431559;28;20170;-83
2023/07/10 05:36:49;;;;;;;6.47;3.30;;;;;;;;;;8432105;28;20118;-85
2023/07/10 05:40:52;;;;;;;4.63;2.90;;;;;;;;;;8428810;28;20043;-83
2023/07/10 05:44:56;;;;;;;4.07;2.55;;;;;;;;;;8430190;28;20067;-92
2023/07/10 05:48:59;;;;;;;4.28;2.65;;;;;;;;;;8431295;28;20055;-88
2023/07/10 05:53:02;;;;;;;6.10;4.13;;;;;;;;;;8431671;28;20045;-86
2023/07/10 05:57:06;;;;;;;5.15;3.53;;;;;;;;;;8435391;28;20047;-85
2023/07/10 06:01:12;;;;;;;6.47;3.85;;;;;;;;;;8430746;28;20082;-92
2023/07/10 06:05:20;;;;;;;7.10;4.65;;;;;;;;;;8430819;28;20088;-85
2023/07/10 06:09:23;;;;;;;6.75;5.63;;;;;;;;;;8442674;28;20086;-84
2023/07/10 06:13:27;;;;;;;7.13;5.03;;;;;;;;;;8433038;28;20055;-96
2023/07/10 06:17:32;;;;;;;5.35;3.95;;;;;;;;;;8431251;28;20044;-88
2023/07/10 06:21:38;;;;;;;3.38;3.08;;;;;;;;;;8441005;28;20091;-88
2023/07/10 06:25:44;;;;;;;3.90;2.90;;;;;;;;;;8439906;28;20131;-85
2023/07/10 06:29:47;;;;;;;4.28;2.78;;;;;;;;;;8436002;28;20044;-85
2023/07/10 06:33:52;;;;;;;5.00;2.20;;;;;;;;;;8429910;28;20127;-83
2023/07/10 06:37:55;;;;;;;5.28;2.33;;;;;;;;;;8428562;28;20487;-90
2023/07/10 06:41:58;;;;;;;3.50;2.22;;;;;;;;;;8430150;28;20047;-92
2023/07/10 06:46:01;;;;;;;3.05;2.00;;;;;;;;;;8432049;28;20050;-89
2023/07/10 06:50:06;;;;;;;3.47;2.58;;;;;;;;;;8426449;28;20086;-83
2023/07/10 06:54:11;;;;;;;3.03;2.00;;;;;;;;;;8438535;28;20467;-85
2023/07/10 06:58:14;;;;;;;2.30;2.00;;;;;;;;;;8430906;28;20509;-85
2023/07/10 07:02:16;;;;;;;4.80;1.90;;;;;;;;;;8431229;28;20058;-85
2023/07/10 07:06:21;;;;;;;4.00;2.20;;;;;;;;;;8428890;28;20114;-85
2023/07/10 07:10:24;;;;;;;2.58;1.52;;;;;;;;;;8424969;28;20105;-81
2023/07/10 07:14:27;;;;;;;2.30;1.60;;;;;;;;;;8427993;28;20064;-86
2023/07/10 07:18:31;;;;;;;2.47;1.60;;;;;;;;;;8428324;28;20047;-85
2023/07/10 07:22:36;;;;;;;3.45;2.05;;;;;;;;;;8440554;28;20040;-85
2023/07/10 07:26:39;;;;;;;4.43;1.77;;;;;;;;;;8427990;28;20131;-87
2023/07/10 07:30:47;;;;;;;3.53;1.80;;;;;;;;;;8427914;28;20123;-92
2023/07/10 07:34:50;;;;;;;3.53;1.73;;;;;;;;;;8422889;28;20127;-86
2023/07/10 07:38:54;;;;;;;4.07;1.83;;;;;;;;;;8438556;28;20044;-89
2023/07/10 07:42:57;;;;;;;5.53;1.85;;;;;;;;;;8427863;28;20142;-84
2023/07/10 07:47:00;;;;;;;2.00;1.65;;;;;;;;;;8427352;28;20055;-88
2023/07/10 07:51:05;;;;;;;4.03;1.80;;;;;;;;;;8416706;28;20045;-83
2023/07/10 07:55:10;;;;;;;2.28;1.88;;;;;;;;;;8428831;28;20391;-87
2023/07/10 07:59:13;;;;;;;2.17;1.45;;;;;;;;;;8433984;28;20040;-83
2023/07/10 08:03:16;;;;;;;3.80;1.70;;;;;;;;;;8433855;28;20055;-87
2023/07/10 08:07:19;;;;;;;3.85;2.10;;;;;;;;;;8427454;28;20043;-83
2023/07/10 08:11:24;;;;;;;4.57;2.10;;;;;;;;;;8436114;28;20067;-89
2023/07/10 08:15:27;;;;;;;4.63;1.73;;;;;;;;;;8434120;28;20539;-85
2023/07/10 08:19:29;;;;;;;2.70;1.75;;;;;;;;;;8433925;28;20075;-85
2023/07/10 08:23:33;;;;;;;4.05;1.90;;;;;;;;;;8434157;28;20115;-90
2023/07/10 08:27:37;;;;;;;4.00;1.80;;;;;;;;;;8436694;28;20119;-86
2023/07/10 08:31:39;;;;;;;2.63;1.85;;;;;;;;;;8441605;28;20055;-88
2023/07/10 08:35:42;;;;;;;4.93;1.80;;;;;;;;;;8434975;28;20159;-84
2023/07/10 08:39:45;;;;;;;2.55;1.75;;;;;;;;;;8433839;28;20149;-87
2023/07/10 08:43:50;;;;;;;3.95;1.75;;;;;;;;;;8436513;28;20463;-87
2023/07/10 08:47:59;;;;;;;2.83;1.73;;;;;;;;;;8432478;28;20548;-89
2023/07/10 08:52:08;;;;;;;2.33;1.88;;;;;;;;;;8434755;28;20104;-89
2023/07/10 08:56:24;;;;;;;2.97;1.80;;;;;;;;;;8432334;28;20053;-87
2023/07/10 09:00:37;;;;;;;5.85;2.10;;;;;;;;;;8437333;28;20112;-84
2023/07/10 09:04:41;;;;;;;4.82;1.95;;;;;;;;;;8434593;28;21582;-83
2023/07/10 09:08:46;;;;;;;2.33;1.77;;;;;;;;;;8435299;28;20044;-91
2023/07/10 09:12:51;;;;;;;1.90;1.70;;;;;;;;;;8430185;28;20052;-88
2023/07/10 09:16:56;;;;;;;2.63;1.90;;;;;;;;;;8437588;28;20093;-91
2023/07/10 09:21:01;;;;;;;2.17;1.70;;;;;;;;;;8444293;28;20424;-84
2023/07/10 09:25:11;;;;;;;2.78;1.67;;;;;;;;;;8432943;28;20559;-88
2023/07/10 09:29:31;;;;;;;2.90;1.88;;;;;;;;;;8433536;28;20043;-90
2023/07/10 09:33:44;;;;;;;2.50;1.88;;;;;;;;;;8438658;28;20074;-91
2023/07/10 09:37:51;;;;;;;4.38;1.95;;;;;;;;;;8432208;28;20040;-85
2023/07/10 09:41:54;;;;;;;2.08;1.67;;;;;;;;;;8431480;28;20093;-85
2023/07/10 09:45:59;;;;;;;2.53;1.90;;;;;;;;;;8430893;28;20744;-86
2023/07/10 09:50:04;;;;;;;5.30;1.90;;;;;;;;;;8431380;28;20044;-82
2023/07/10 09:54:07;;;;;;;3.33;1.70;;;;;;;;;;8431323;28;20048;-88
2023/07/10 09:58:14;;;;;;;2.97;1.70;;;;;;;;;;8430516;28;20051;-82
2023/07/10 10:02:21;;;;;;;1.73;1.60;;;;;;;;;;8430793;28;20472;-82
2023/07/10 10:06:27;;;;;;;2.58;1.65;;;;;;;;;;8437869;28;20048;-82
2023/07/10 10:10:32;;;;;;;3.47;2.35;;;;;;;;;;8425770;28;20624;-83
2023/07/10 10:14:42;;;;;;;2.70;2.13;;;;;;;;;;8430198;28;20076;-88
2023/07/10 10:18:50;;;;;;;3.40;2.10;;;;;;;;;;8429734;28;20373;-83
2023/07/10 10:22:54;;;;;;;4.95;1.92;;;;;;;;;;8431243;28;20608;-88
2023/07/10 10:27:22;;;;;;;2.35;1.88;;;;;;;;;;8430504;28;20119;-87
2023/07/10 10:31:30;;;;;;;4.35;2.00;;;;;;;;;;8431080;28;20527;-86
2023/07/10 10:35:47;;;;;;;4.55;1.98;;;;;;;;;;8429005;28;20096;-87
2023/07/10 10:39:59;;;;;;;2.17;1.85;;;;;;;;;;8428693;28;20101;-87
2023/07/10 10:44:09;;;;;;;3.42;1.90;;;;;;;;;;8429890;28;20519;-84
2023/07/10 10:48:22;;;;;;;3.30;2.08;;;;;;;;;;8425981;28;20086;-82
2023/07/10 10:52:32;;;;;;;2.78;1.98;;;;;;;;;;8429770;28;20046;-83
2023/07/10 10:56:44;;;;;;;3.25;1.92;;;;;;;;;;8429025;28;20062;-87
2023/07/10 11:01:08;;;;;;;3.05;1.90;;;;;;;;;;8427788;28;20763;-88
2023/07/10 11:05:20;;;;;;;2.80;2.00;;;;;;;;;;8417774;28;20089;-87
2023/07/10 11:09:25;;;;;;;;;;;;;;;;;;8429223;28;20039;-86
2023/07/10 11:13:33;;;;;;;3.15;1.80;;;;;;;;;;8429099;28;20283;-86
2023/07/10 11:17:36;;;;;;;2.92;1.83;;;;;;;;;;8429133;28;20040;-87
2023/07/10 11:21:39;;;;;;;3.00;1.98;;;;;;;;;;8428047;28;20177;-86
2023/07/10 11:25:43;;;;;;;4.22;1.85;;;;;;;;;;8429126;28;20514;-82
2023/07/10 11:29:55;;;;;;;3.25;2.17;;;;;;;;;;8427737;28;20535;-82
2023/07/10 11:34:53;;;;;;;5.75;2.13;;;;;;;;;;8427210;28;20060;-86
2023/07/10 11:38:58;;;;;;;4.50;2.22;;;;;;;;;;8400166;28;20507;-89
2023/07/10 11:43:02;;;;;;;3.22;2.20;;;;;;;;;;8422700;28;20059;-83
2023/07/10 11:47:21;;;;;;;4.43;2.30;;;;;;;;;;8428738;28;20036;-91
2023/07/10 11:51:25;;;;;;;4.38;1.90;;;;;;;;;;8428616;28;20119;-86
2023/07/10 11:55:28;;;;;;;3.78;2.03;;;;;;;;;;8428579;28;20040;-91
2023/07/10 11:59:31;;;;;;;4.72;1.98;;;;;;;;;;8427748;28;20422;-89
2023/07/10 12:03:36;;;;;;;5.18;2.30;;;;;;;;;;8410022;28;20481;-91
2023/07/10 12:07:49;;;;;;;3.70;1.98;;;;;;;;;;8428920;28;20502;-89
2023/07/10 12:11:56;;;;;;;3.90;2.25;;;;;;;;;;8428071;28;20070;-82
2023/07/10 12:16:06;;;;;;;2.97;2.22;;;;;;;;;;8428225;28;20052;-90
2023/07/10 12:20:30;;;;;;;3.65;2.13;;;;;;;;;;8427568;28;20043;-89
2023/07/10 12:24:32;;;;;;;3.97;2.00;;;;;;;;;;8421027;28;20499;-87
2023/07/10 12:28:36;;;;;;;4.80;2.20;;;;;;;;;;8427904;28;20399;-81
2023/07/10 12:32:40;;;;;;;3.42;2.17;;;;;;;;;;8426142;28;20096;-90
2023/07/10 12:36:49;;;;;;;3.85;1.92;;;;;;;;;;8427582;28;20428;-82
2023/07/10 12:40:52;;;;;;;5.25;2.05;;;;;;;;;;8427410;28;20052;-82
2023/07/10 12:44:55;;;;;;;3.15;2.08;;;;;;;;;;8432955;28;20086;-87
2023/07/10 12:49:01;;;;;;;3.50;2.10;;;;;;;;;;8433473;28;20051;-88
2023/07/10 12:53:07;;;;;;;4.35;2.28;;;;;;;;;;8433203;28;20044;-81
2023/07/10 12:57:15;;;;;;;5.32;2.03;;;;;;;;;;8423998;28;20064;-82
2023/07/10 13:01:21;;;;;;;4.65;2.10;;;;;;;;;;8438830;28;20044;-83
2023/07/10 13:05:25;;;;;;;2.80;2.05;;;;;;;;;;8434150;28;20090;-82
2023/07/10 13:09:32;;;;;;;4.28;2.22;;;;;;;;;;8432806;28;20463;-88
2023/07/10 13:13:39;;;;;;;3.97;2.10;;;;;;;;;;8432240;28;20048;-82
2023/07/10 13:17:47;;;;;;;2.05;1.77;;;;;;;;;;8431983;28;20123;-88
2023/07/10 13:21:51;;;;;;;2.40;1.77;;;;;;;;;;8432034;28;20123;-82
2023/07/10 13:25:56;;;;;;;7.18;2.10;;;;;;;;;;8431481;28;20048;-82
2023/07/10 13:29:59;;;;;;;2.95;2.13;;;;;;;;;;8431995;28;20400;-82
2023/07/10 13:34:03;;;;;;;3.90;2.35;;;;;;;;;;8430889;28;20040;-89
2023/07/10 13:38:11;;;;;;;2.65;2.08;;;;;;;;;;8430482;28;20119;-82
2023/07/10 13:42:16;;;;;;;5.38;2.30;;;;;;;;;;8428868;28;20036;-88
2023/07/10 13:46:22;;;;;;;4.47;2.13;;;;;;;;;;8430394;28;20491;-89
2023/07/10 13:50:25;;;;;;;4.13;2.10;;;;;;;;;;8416318;28;20036;-88
2023/07/10 13:54:27;;;;;;;5.68;2.38;;;;;;;;;;8431091;28;20508;-88
2023/07/10 13:58:32;;;;;;;8.52;2.60;;;;;;;;;;8430447;28;20043;-88
2023/07/10 14:02:37;;;;;;;4.30;1.95;;;;;;;;;;8429038;28;20040;-88
2023/07/10 14:06:45;;;;;;;4.93;2.40;;;;;;;;;;8410384;28;20127;-88
2023/07/10 14:10:48;;;;;;;3.70;2.25;;;;;;;;;;8425104;28;20535;-89
2023/07/10 14:14:52;;;;;;;5.55;2.70;;;;;;;;;;8429704;28;20388;-86
2023/07/10 14:18:55;;;;;;;3.20;2.30;;;;;;;;;;8430926;28;20164;-86
2023/07/10 14:22:58;;;;;;;5.70;2.45;;;;;;;;;;8427361;28;20051;-82
2023/07/10 14:27:01;;;;;;;6.40;2.72;;;;;;;;;;8430841;28;20472;-87
2023/07/10 14:31:05;;;;;;;4.05;2.50;;;;;;;;;;8430505;28;20082;-84
2023/07/10 14:35:15;;;;;;;5.72;2.53;;;;;;;;;;8430319;28;20131;-87
2023/07/10 14:39:17;;;;;;;4.18;2.60;;;;;;;;;;8416787;28;20043;-86
2023/07/10 14:43:20;;;;;;;4.53;2.28;;;;;;;;;;8430101;28;20047;-82
2023/07/10 14:47:32;;;;;;;8.45;2.53;;;;;;;;;;8429929;28;20044;-88
2023/07/10 14:51:35;;;;;;;4.30;2.20;;;;;;;;;;8427987;28;20162;-85
2023/07/10 14:55:38;;;;;;;4.35;2.05;;;;;;;;;;8429214;28;20059;-82
2023/07/10 14:59:41;;;;;;;4.75;2.38;;;;;;;;;;8427070;28;20054;-88
2023/07/10 15:03:46;;;;;;;3.70;2.28;;;;;;;;;;8428500;28;20056;-89
2023/07/10 15:07:50;;;;;;;5.25;2.42;;;;;;;;;;8428702;28;20408;-85
2023/07/10 15:11:53;;;;;;;3.65;2.20;;;;;;;;;;8428320;28;20115;-84
2023/07/10 15:16:00;;;;;;;3.10;2.10;;;;;;;;;;8428911;28;20048;-82
2023/07/10 15:20:14;;;;;;;3.83;2.20;;;;;;;;;;8437419;28;20122;-84
2023/07/10 15:24:25;;;;;;;3.50;2.17;;;;;;;;;;8416366;28;20088;-85
2023/07/10 15:28:28;;;;;;;3.13;2.20;;;;;;;;;;8432827;28;20484;-83
2023/07/10 15:32:38;;;;;;;3.53;2.40;;;;;;;;;;8428339;28;20036;-85
2023/07/10 15:36:42;;;;;;;3.05;2.17;;;;;;;;;;8432432;28;20131;-92
2023/07/10 15:40:52;;;;;;;6.40;2.90;;;;;;;;;;8438002;28;20097;-87
2023/07/10 15:44:55;;;;;;;3.58;2.42;;;;;;;;;;8426810;28;20467;-90
2023/07/10 15:48:58;;;;;;;6.63;2.35;;;;;;;;;;8426178;28;20047;-86
2023/07/10 15:53:03;;;;;;;4.47;2.45;;;;;;;;;;8427741;28;20048;-86
2023/07/10 15:57:07;;;;;;;4.22;2.70;;;;;;;;;;8434027;28;20119;-85
2023/07/10 16:01:15;;;;;;;3.92;2.25;;;;;;;;;;8423662;28;20537;-85
2023/07/10 16:05:23;;;;;;;4.63;2.63;;;;;;;;;;8427706;28;20631;-88
2023/07/10 16:09:27;;;;;;;3.42;2.40;;;;;;;;;;8428121;28;20048;-87
2023/07/10 16:13:32;;;;;;;7.15;2.55;;;;;;;;;;8426573;28;20068;-88
2023/07/10 16:17:35;;;;;;;6.18;2.33;;;;;;;;;;8431836;28;20136;-87
2023/07/10 16:21:39;;;;;;;3.55;2.30;;;;;;;;;;8434691;28;20040;-86
2023/07/10 16:25:43;;;;;;;4.20;2.58;;;;;;;;;;8434117;28;20075;-87
2023/07/10 16:29:46;;;;;;;3.67;2.40;;;;;;;;;;8434815;28;20441;-88
2023/07/10 16:33:50;;;;;;;4.07;2.20;;;;;;;;;;8434200;28;20118;-88
2023/07/10 16:37:53;;;;;;;3.65;2.55;;;;;;;;;;8434040;28;20142;-84
2023/07/10 16:41:58;;;;;;;3.38;2.30;;;;;;;;;;8433965;28;20044;-84
2023/07/10 16:46:02;;;;;;;4.85;2.65;;;;;;;;;;8433735;28;20128;-86
2023/07/10 16:50:05;;;;;;;4.38;2.70;;;;;;;;;;8433690;28;20036;-88
2023/07/10 16:54:12;;;;;;;8.43;2.78;;;;;;;;;;8433893;28;20072;-87
2023/07/10 16:58:17;;;;;;;10.38;4.15;;;;;;;;;;8433373;28;20119;-86
2023/07/10 17:02:23;;;;;;;11.93;5.40;;;;;;;;;;8433415;28;20146;-88
2023/07/10 17:06:28;;;;;;;6.32;3.80;;;;;;;;;;8432933;28;20135;-83
2023/07/10 17:10:30;;;;;;;6.22;3.42;;;;;;;;;;8431911;28;20060;-88
2023/07/10 17:14:35;;;;;;;7.57;3.53;;;;;;;;;;8432502;28;20052;-87
2023/07/10 17:18:40;;;;;;;5.88;3.53;;;;;;;;;;8433176;28;20143;-87
2023/07/10 17:22:43;;;;;;;7.60;3.92;;;;;;;;;;8432146;28;20078;-87
2023/07/10 17:26:46;;;;;;;6.28;3.20;;;;;;;;;;8431737;28;20139;-86
2023/07/10 17:30:52;;;;;;;9.07;3.50;;;;;;;;;;8432196;28;20468;-87
2023/07/10 17:34:55;;;;;;;11.18;3.50;;;;;;;;;;8432289;28;20051;-86
2023/07/10 17:38:58;;;;;;;5.63;3.20;;;;;;;;;;8431837;28;20135;-87
2023/07/10 17:43:01;;;;;;;5.72;2.88;;;;;;;;;;8432115;28;20139;-87
2023/07/10 17:47:05;;;;;;;5.22;3.00;;;;;;;;;;8431807;28;20047;-84
2023/07/10 17:51:23;;;;;;;4.07;3.05;;;;;;;;;;8431958;28;20043;-87
2023/07/10 17:55:26;;;;;;;6.80;3.33;;;;;;;;;;8431710;28;20048;-83
2023/07/10 17:59:29;;;;;;;4.85;3.25;;;;;;;;;;8431473;28;20048;-88
2023/07/10 18:03:34;;;;;;;5.88;3.30;;;;;;;;;;8431561;28;20044;-83
2023/07/10 18:07:39;;;;;;;11.00;3.42;;;;;;;;;;8431077;28;20067;-87
2023/07/10 18:11:42;;;;;;;10.52;3.80;;;;;;;;;;8431863;28;20070;-88
2023/07/10 18:15:45;;;;;;;11.95;6.05;;;;;;;;;;8431015;28;20043;-86
2023/07/10 18:19:50;;;;;;;23.25;10.88;;;;;;;;;;8431267;28;20097;-87
2023/07/10 18:23:55;;;;;;;9.90;4.80;;;;;;;;;;8431348;28;20546;-88
2023/07/10 18:27:59;;;;;;;12.77;6.90;;;;;;;;;;8430568;28;20059;-88
2023/07/10 18:32:02;;;;;;;25.60;8.05;;;;;;;;;;8430301;28;20392;-84
2023/07/10 18:36:09;;;;;;;20.48;9.07;;;;;;;;;;8428996;28;20040;-88
2023/07/10 18:40:15;;;;;;;16.63;7.00;;;;;;;;;;8428686;28;20059;-88
2023/07/10 18:44:19;;;;;;;22.55;10.32;;;;;;;;;;8429510;28;20081;-82
2023/07/10 18:48:24;;;;;;;7.70;4.60;;;;;;;;;;8430231;28;20039;-86
2023/07/10 18:52:34;;;;;;;10.55;4.90;;;;;;;;;;8430372;28;20482;-82
2023/07/10 18:56:39;;;;;;;12.07;5.57;;;;;;;;;;8416456;28;20499;-82
2023/07/10 19:00:43;;;;;;;11.80;5.82;;;;;;;;;;8429911;28;20492;-88
2023/07/10 19:04:46;;;;;;;9.85;5.97;;;;;;;;;;8429687;28;20766;-88
2023/07/10 19:08:52;;;;;;;11.60;5.40;;;;;;;;;;8429943;28;20043;-87
2023/07/10 19:12:56;;;;;;;7.65;4.55;;;;;;;;;;8429403;28;20131;-88
2023/07/10 19:17:00;;;;;;;7.50;4.38;;;;;;;;;;8429603;28;20551;-89
2023/07/10 19:21:05;;;;;;;6.72;3.83;;;;;;;;;;8426805;28;20130;-88
2023/07/10 19:25:16;;;;;;;9.63;4.45;;;;;;;;;;8425672;28;20122;-89
2023/07/10 19:29:19;;;;;;;9.60;4.70;;;;;;;;;;8422127;28;20049;-88
2023/07/10 19:33:26;;;;;;;8.85;4.55;;;;;;;;;;8422037;28;20050;-88
2023/07/10 19:37:32;;;;;;;11.27;6.45;;;;;;;;;;8416330;28;20044;-87
2023/07/10 19:41:38;;;;;;;12.30;6.15;;;;;;;;;;8428761;28;20055;-88
2023/07/10 19:45:43;;;;;;;8.27;5.65;;;;;;;;;;8417146;28;20483;-81
2023/07/10 19:49:48;;;;;;;9.52;5.47;;;;;;;;;;8428801;28;20052;-88
2023/07/10 19:53:51;;;;;;;25.27;12.57;;;;;;;;;;8434990;28;20130;-87
2023/07/10 19:57:57;;;;;;;15.90;5.75;;;;;;;;;;8434993;28;20039;-82
2023/07/10 20:02:02;;;;;;;17.02;7.82;;;;;;;;;;8428767;28;20035;-86
2023/07/10 20:06:16;;;;;;;11.27;5.13;;;;;;;;;;8435841;28;20154;-90
2023/07/10 20:10:21;;;;;;;30.20;12.52;;;;;;;;;;8427885;28;20047;-89
2023/07/10 20:14:27;;;;;;;24.10;9.45;;;;;;;;;;8424663;28;20052;-84
2023/07/10 20:18:32;;;;;;;14.10;6.88;;;;;;;;;;8435098;28;20040;-85
2023/07/10 20:22:35;;;;;;;13.73;7.78;;;;;;;;;;8432781;28;20043;-90
2023/07/10 20:26:39;;;;;;;14.50;8.98;;;;;;;;;;8433898;28;20063;-87
2023/07/10 20:30:44;;;;;;;9.98;6.63;;;;;;;;;;8434977;28;20444;-83
2023/07/10 20:34:48;;;;;;;8.43;5.47;;;;;;;;;;8422542;28;20051;-89
2023/07/10 20:38:52;;;;;;;13.15;6.85;;;;;;;;;;8427931;28;20053;-89
2023/07/10 20:42:56;;;;;;;8.43;5.30;;;;;;;;;;8428909;28;20050;-88
2023/07/10 20:47:00;;;;;;;11.85;6.47;;;;;;;;;;8429057;28;20068;-91
2023/07/10 20:51:04;;;;;;;10.73;6.57;;;;;;;;;;8433984;28;20066;-82
2023/07/10 20:55:12;;;;;;;11.57;7.07;;;;;;;;;;8426999;28;20111;-89
2023/07/10 20:59:20;;;;;;;11.85;6.22;;;;;;;;;;8428787;28;20040;-89
2023/07/10 21:03:26;;;;;;;9.48;5.68;;;;;;;;;;8426898;28;20412;-91
2023/07/10 21:07:29;;;;;;;10.13;5.50;;;;;;;;;;8425684;28;20107;-90
2023/07/10 21:11:34;;;;;;;8.48;5.30;;;;;;;;;;8433016;28;20040;-84
2023/07/10 21:15:37;;;;;;;9.15;5.68;;;;;;;;;;8426493;28;20138;-87
2023/07/10 21:19:41;;;;;;;11.18;6.03;;;;;;;;;;8432766;28;20533;-89
2023/07/10 21:23:44;;;;;;;9.35;5.25;;;;;;;;;;8418266;28;20793;-89
2023/07/10 21:27:47;;;;;;;6.90;4.47;;;;;;;;;;8432916;28;20039;-93
2023/07/10 21:31:51;;;;;;;7.03;4.57;;;;;;;;;;8440511;28;20070;-90
2023/07/10 21:35:56;;;;;;;9.55;5.50;;;;;;;;;;8432711;28;20089;-90
2023/07/10 21:39:59;;;;;;;7.93;5.30;;;;;;;;;;8432596;28;20487;-83
2023/07/10 21:44:06;;;;;;;11.63;6.30;;;;;;;;;;8432057;28;20076;-84
2023/07/10 21:48:18;;;;;;;8.70;5.00;;;;;;;;;;8443631;28;20047;-86
2023/07/10 21:52:22;;;;;;;8.05;5.25;;;;;;;;;;8432543;28;20051;-90
2023/07/10 21:56:27;;;;;;;8.52;5.45;;;;;;;;;;8432268;28;20491;-90
2023/07/10 22:00:30;;;;;;;11.60;5.47;;;;;;;;;;8433169;28;20485;-83
2023/07/10 22:04:33;;;;;;;9.95;6.07;;;;;;;;;;8443179;28;20069;-84
2023/07/10 22:08:38;;;;;;;9.18;5.82;;;;;;;;;;8431757;28;20395;-89
2023/07/10 22:12:41;;;;;;;9.23;5.53;;;;;;;;;;8431344;28;20056;-90
2023/07/10 22:16:45;;;;;;;9.43;5.45;;;;;;;;;;8431113;28;20463;-89
2023/07/10 22:20:50;;;;;;;8.32;5.60;;;;;;;;;;8430421;28;20040;-84
2023/07/10 22:24:54;;;;;;;9.15;5.10;;;;;;;;;;8426765;28;20130;-85
2023/07/10 22:28:57;;;;;;;7.45;5.38;;;;;;;;;;8430049;28;20044;-85
2023/07/10 22:33:01;;;;;;;9.15;6.05;;;;;;;;;;8422016;28;20495;-84
2023/07/10 22:37:04;;;;;;;7.85;5.10;;;;;;;;;;8434180;28;20552;-89
2023/07/10 22:41:13;;;;;;;9.43;5.40;;;;;;;;;;8430465;28;20472;-83
2023/07/10 22:45:17;;;;;;;13.23;6.28;;;;;;;;;;8430652;28;20483;-91
2023/07/10 22:49:24;;;;;;;8.82;5.60;;;;;;;;;;8427968;28;20117;-84
2023/07/10 22:53:27;;;;;;;9.88;6.22;;;;;;;;;;8430192;28;20075;-90
2023/07/10 22:57:32;;;;;;;7.03;4.72;;;;;;;;;;8430218;28;20054;-84
2023/07/10 23:01:35;;;;;;;10.35;5.40;;;;;;;;;;8426709;28;20396;-90
2023/07/10 23:05:38;;;;;;;11.02;5.07;;;;;;;;;;8430162;28;20579;-85
2023/07/10 23:09:41;;;;;;;9.05;5.03;;;;;;;;;;8429226;28;20051;-88
2023/07/10 23:13:45;;;;;;;10.82;5.50;;;;;;;;;;8428990;28;20438;-87
2023/07/10 23:17:49;;;;;;;9.38;5.70;;;;;;;;;;8429617;28;20048;-91
2023/07/10 23:21:51;;;;;;;8.55;5.90;;;;;;;;;;8429184;28;20048;-86
2023/07/10 23:25:54;;;;;;;8.57;5.85;;;;;;;;;;8415295;28;20064;-92
2023/07/10 23:29:59;;;;;;;6.85;5.20;;;;;;;;;;8418480;28;20062;-92
2023/07/10 23:34:01;;;;;;;7.80;5.25;;;;;;;;;;8427105;28;20040;-88
2023/07/10 23:38:04;;;;;;;8.65;5.75;;;;;;;;;;8421201;28;20123;-83
2023/07/10 23:42:08;;;;;;;8.23;5.75;;;;;;;;;;8429036;28;20456;-90
2023/07/10 23:46:12;;;;;;;8.32;5.22;;;;;;;;;;8428697;28;20127;-84
2023/07/10 23:50:17;;;;;;;7.70;5.70;;;;;;;;;;8428170;28;20094;-89
2023/07/10 23:54:20;;;;;;;8.27;5.97;;;;;;;;;;8428846;28;20563;-82
2023/07/10 23:58:23;;;;;;;9.60;6.00;;;;;;;;;;8427801;28;20074;-91
